createdAt,value
2018-10-01T00:01:01.699Z,6.40
2018-10-01T00:03:31.245Z,5.63
2018-10-01T00:06:00.699Z,7.07
2018-10-01T00:08:30.340Z,6.37
2018-10-01T00:10:59.596Z,6.40
2018-10-01T00:13:28.878Z,5.10
2018-10-01T00:15:58.441Z,6.33
2018-10-01T00:18:27.705Z,6.10
2018-10-01T00:21:01.853Z,6.10
2018-10-01T00:23:30.895Z,5.83
2018-10-01T00:25:59.958Z,6.23
2018-10-01T00:28:29.217Z,5.17
2018-10-01T00:30:58.469Z,6.00
2018-10-01T00:33:27.441Z,5.90
2018-10-01T00:35:56.677Z,6.13
2018-10-01T00:38:25.671Z,6.57
2018-10-01T00:40:55.729Z,5.13
2018-10-01T00:43:25.432Z,5.70
2018-10-01T00:45:55.144Z,6.50
2018-10-01T00:48:26.576Z,6.20
2018-10-01T00:50:55.540Z,6.90
2018-10-01T00:53:25.630Z,6.50
2018-10-01T00:55:58.602Z,6.33
2018-10-01T00:58:27.765Z,5.73
2018-10-01T01:00:56.982Z,5.20
2018-10-01T01:03:26.104Z,5.30
2018-10-01T01:05:55.168Z,6.00
2018-10-01T01:08:24.210Z,6.47
2018-10-01T01:10:53.330Z,6.33
2018-10-01T01:13:22.696Z,6.60
2018-10-01T01:15:52.182Z,6.10
2018-10-01T01:18:21.218Z,6.23
2018-10-01T01:20:50.178Z,6.57
2018-10-01T01:23:19.344Z,5.97
2018-10-01T01:25:48.602Z,6.60
2018-10-01T01:28:18.530Z,7.03
2018-10-01T01:30:48.615Z,6.37
2018-10-01T01:33:17.616Z,6.97
2018-10-01T01:35:46.695Z,6.80
2018-10-01T01:38:16.098Z,6.93
2018-10-01T01:40:45.052Z,6.90
2018-10-01T01:43:14.081Z,5.80
2018-10-01T01:45:43.021Z,5.40
2018-10-01T01:48:12.047Z,6.10
2018-10-01T01:50:41.366Z,6.23
2018-10-01T01:53:11.081Z,7.23
2018-10-01T01:55:40.503Z,6.50
2018-10-01T01:58:09.925Z,5.80
2018-10-01T02:00:39.386Z,5.43
2018-10-01T02:03:08.515Z,6.80
2018-10-01T02:05:37.523Z,6.90
2018-10-01T02:08:06.569Z,6.10
2018-10-01T02:10:35.609Z,5.83
2018-10-01T02:13:04.736Z,6.40
2018-10-01T02:15:37.440Z,6.70
2018-10-01T02:18:06.540Z,6.17
2018-10-01T02:20:35.560Z,5.13
2018-10-01T02:23:04.729Z,6.20
2018-10-01T02:25:33.702Z,5.57
2018-10-01T02:28:03.069Z,5.40
2018-10-01T02:30:32.190Z,5.27
2018-10-01T02:33:01.168Z,4.60
2018-10-01T02:35:30.224Z,5.60
2018-10-01T02:37:59.357Z,5.93
2018-10-01T02:40:28.880Z,6.10
2018-10-01T02:42:58.018Z,5.67
2018-10-01T02:45:26.908Z,6.77
2018-10-01T02:47:55.912Z,6.20
2018-10-01T02:50:24.933Z,5.90
2018-10-01T02:52:58.999Z,5.57
2018-10-01T02:55:28.318Z,5.73
2018-10-01T02:57:57.551Z,5.77
2018-10-01T03:00:27.347Z,5.57
2018-10-01T03:02:56.484Z,7.30
2018-10-01T03:05:25.487Z,4.00
2018-10-01T03:07:54.649Z,4.90
2018-10-01T03:10:23.777Z,4.30
2018-10-01T03:12:52.829Z,6.33
2018-10-01T03:15:22.603Z,5.63
2018-10-01T03:17:52.115Z,5.47
2018-10-01T03:20:22.300Z,5.33
2018-10-01T03:22:51.348Z,5.07
2018-10-01T03:25:20.471Z,6.13
2018-10-01T03:27:49.570Z,3.87
2018-10-01T03:30:18.618Z,5.77
2018-10-01T03:32:47.619Z,6.10
2018-10-01T03:35:16.673Z,4.90
2018-10-01T03:37:45.673Z,6.87
2018-10-01T03:40:14.896Z,5.77
2018-10-01T03:42:43.871Z,4.10
2018-10-01T03:45:13.015Z,4.73
2018-10-01T03:47:41.965Z,5.27
2018-10-01T03:50:10.995Z,4.70
2018-10-01T03:52:40.028Z,4.80
2018-10-01T03:55:09.068Z,4.20
2018-10-01T03:57:38.025Z,4.10
2018-10-01T04:00:07.221Z,4.77
2018-10-01T04:02:36.201Z,4.27
2018-10-01T04:05:05.224Z,4.50
2018-10-01T04:07:34.239Z,5.30
2018-10-01T04:10:04.304Z,4.10
2018-10-01T04:12:33.346Z,5.20
2018-10-01T04:15:02.336Z,4.60
2018-10-01T04:17:31.432Z,4.90
2018-10-01T04:20:00.576Z,4.10
2018-10-01T04:22:34.018Z,4.87
2018-10-01T04:25:03.029Z,3.00
2018-10-01T04:27:32.460Z,5.13
2018-10-01T04:30:01.493Z,4.13
2018-10-01T04:32:30.619Z,3.67
2018-10-01T04:34:59.700Z,5.20
2018-10-01T04:37:28.621Z,4.23
2018-10-01T04:39:58.655Z,4.60
2018-10-01T04:42:27.708Z,4.20
2018-10-01T04:44:57.157Z,4.97
2018-10-01T04:47:26.183Z,3.60
2018-10-01T04:49:55.207Z,4.37
2018-10-01T04:52:24.245Z,4.70
2018-10-01T04:54:53.644Z,3.20
2018-10-01T04:57:23.024Z,4.70
2018-10-01T04:59:52.378Z,6.07
2018-10-01T05:02:22.377Z,3.33
2018-10-01T05:04:51.439Z,3.77
2018-10-01T05:07:20.429Z,2.97
2018-10-01T05:09:49.543Z,3.20
2018-10-01T05:12:18.577Z,3.03
2018-10-01T05:14:47.716Z,3.43
2018-10-01T05:17:17.064Z,3.33
2018-10-01T05:19:46.351Z,3.93
2018-10-01T05:22:15.807Z,5.37
2018-10-01T05:24:44.823Z,2.33
2018-10-01T05:27:13.908Z,3.87
2018-10-01T05:29:42.948Z,3.63
2018-10-01T05:32:11.941Z,3.47
2018-10-01T05:34:43.087Z,4.53
2018-10-01T05:37:12.248Z,4.30
2018-10-01T05:39:41.306Z,3.13
2018-10-01T05:42:10.313Z,3.83
2018-10-01T05:44:39.973Z,3.10
2018-10-01T05:47:09.134Z,2.73
2018-10-01T05:49:38.107Z,3.13
2018-10-01T05:52:07.356Z,3.33
2018-10-01T05:54:36.500Z,3.23
2018-10-01T05:57:05.600Z,3.50
2018-10-01T05:59:34.628Z,4.27
2018-10-01T06:02:04.857Z,3.33
2018-10-01T06:04:33.792Z,4.00
2018-10-01T06:07:03.001Z,4.33
2018-10-01T06:09:32.180Z,3.60
2018-10-01T06:12:01.306Z,2.93
2018-10-01T06:14:30.388Z,2.97
2018-10-01T06:16:59.511Z,3.47
2018-10-01T06:19:28.617Z,3.27
2018-10-01T06:21:57.599Z,3.37
2018-10-01T06:24:26.529Z,2.87
2018-10-01T06:26:55.461Z,3.60
2018-10-01T06:29:24.419Z,4.07
2018-10-01T06:31:53.487Z,3.70
2018-10-01T06:34:22.466Z,3.43
2018-10-01T06:36:51.625Z,4.10
2018-10-01T06:39:20.657Z,4.50
2018-10-01T06:41:49.908Z,2.73
2018-10-01T06:44:18.860Z,2.93
2018-10-01T06:46:47.934Z,3.00
2018-10-01T06:49:17.014Z,4.63
2018-10-01T06:51:46.047Z,2.77
2018-10-01T06:54:19.810Z,2.70
2018-10-01T06:56:48.905Z,4.33
2018-10-01T06:59:19.764Z,3.33
2018-10-01T07:01:50.142Z,4.27
2018-10-01T07:04:19.094Z,3.67
2018-10-01T07:06:48.203Z,3.60
2018-10-01T07:09:17.307Z,3.20
2018-10-01T07:12:03.032Z,3.00
2018-10-01T07:14:32.214Z,2.27
2018-10-01T07:17:01.599Z,2.80
2018-10-01T07:19:30.746Z,2.50
2018-10-01T07:21:59.816Z,2.60
2018-10-01T07:24:28.841Z,3.00
2018-10-01T07:26:57.861Z,2.30
2018-10-01T07:29:27.272Z,2.93
2018-10-01T07:31:57.558Z,2.93
2018-10-01T07:34:26.625Z,2.53
2018-10-01T07:36:55.989Z,2.00
2018-10-01T07:39:25.050Z,1.80
2018-10-01T07:41:54.193Z,2.60
2018-10-01T07:44:23.458Z,3.83
2018-10-01T07:46:52.608Z,3.70
2018-10-01T07:49:21.610Z,3.20
2018-10-01T07:51:50.836Z,1.70
2018-10-01T07:54:20.118Z,2.17
2018-10-01T07:56:49.200Z,2.70
2018-10-01T07:59:18.262Z,2.27
2018-10-01T08:01:50.665Z,1.83
2018-10-01T08:04:19.658Z,2.40
2018-10-01T08:06:48.759Z,3.33
2018-10-01T08:09:17.777Z,2.27
2018-10-01T08:11:47.020Z,2.40
2018-10-01T08:14:16.315Z,2.50
2018-10-01T08:16:45.407Z,2.10
2018-10-01T08:19:14.720Z,2.20
2018-10-01T08:21:44.869Z,3.13
2018-10-01T08:24:13.927Z,2.57
2018-10-01T08:26:43.227Z,2.10
2018-10-01T08:29:12.305Z,3.20
2018-10-01T08:31:41.784Z,2.17
2018-10-01T08:34:10.833Z,2.73
2018-10-01T08:36:39.951Z,2.33
2018-10-01T08:39:14.495Z,2.20
2018-10-01T08:41:43.560Z,1.90
2018-10-01T08:44:13.662Z,1.60
2018-10-01T08:46:42.865Z,1.70
2018-10-01T08:49:16.196Z,2.03
2018-10-01T08:51:50.660Z,2.53
2018-10-01T08:54:24.293Z,2.37
2018-10-01T08:56:53.852Z,2.60
2018-10-01T08:59:22.876Z,2.40
2018-10-01T09:02:00.783Z,2.47
2018-10-01T09:04:29.929Z,1.70
2018-10-01T09:06:59.133Z,2.27
2018-10-01T09:09:28.139Z,1.70
2018-10-01T09:11:57.424Z,1.67
2018-10-01T09:14:26.492Z,2.80
2018-10-01T09:16:55.452Z,1.60
2018-10-01T09:19:24.617Z,1.77
2018-10-01T09:21:53.671Z,1.80
2018-10-01T09:24:23.112Z,1.73
2018-10-01T09:26:52.375Z,1.97
2018-10-01T09:29:21.895Z,1.77
2018-10-01T09:31:51.252Z,1.93
2018-10-01T09:34:20.301Z,3.47
2018-10-01T09:36:49.343Z,2.80
2018-10-01T09:39:18.590Z,1.23
2018-10-01T09:41:47.845Z,1.80
2018-10-01T09:44:20.821Z,1.30
2018-10-01T09:46:50.023Z,1.90
2018-10-01T09:49:19.070Z,1.77
2018-10-01T09:51:48.126Z,1.93
2018-10-01T09:54:40.057Z,1.60
2018-10-01T09:57:08.957Z,1.70
2018-10-01T09:59:38.071Z,2.03
2018-10-01T10:02:06.824Z,3.43
2018-10-01T10:04:35.949Z,1.93
2018-10-01T10:07:04.947Z,1.70
2018-10-01T10:09:34.276Z,3.17
2018-10-01T10:12:03.326Z,1.97
2018-10-01T10:14:32.474Z,1.30
2018-10-01T10:17:01.542Z,1.63
2018-10-01T10:19:30.582Z,2.03
2018-10-01T10:21:59.665Z,1.67
2018-10-01T10:24:29.792Z,2.00
2018-10-01T10:26:58.992Z,1.47
2018-10-01T10:29:28.092Z,2.20
2018-10-01T10:31:57.208Z,1.23
2018-10-01T10:34:34.277Z,1.10
2018-10-01T10:37:03.325Z,2.00
2018-10-01T10:39:32.518Z,1.57
2018-10-01T10:42:01.556Z,1.47
2018-10-01T10:44:45.107Z,1.47
2018-10-01T10:47:14.167Z,1.57
2018-10-01T10:49:43.309Z,1.73
2018-10-01T10:52:12.339Z,1.13
2018-10-01T10:54:42.743Z,1.50
2018-10-01T10:57:12.998Z,1.60
2018-10-01T10:59:41.979Z,1.67
2018-10-01T11:02:11.156Z,1.23
2018-10-01T11:04:40.328Z,1.07
2018-10-01T11:07:09.375Z,1.00
2018-10-01T11:09:38.416Z,1.30
2018-10-01T11:12:07.897Z,1.27
2018-10-01T11:14:39.203Z,1.10
2018-10-01T11:17:08.381Z,1.03
2018-10-01T11:19:37.822Z,1.57
2018-10-01T11:22:07.056Z,1.30
2018-10-01T11:24:41.673Z,1.30
2018-10-01T11:27:10.891Z,1.27
2018-10-01T11:29:40.032Z,1.00
2018-10-01T11:32:09.168Z,1.10
2018-10-01T11:34:41.554Z,1.60
2018-10-01T11:37:10.747Z,1.83
2018-10-01T11:39:39.898Z,1.17
2018-10-01T11:42:08.941Z,2.30
2018-10-01T11:44:41.729Z,1.73
2018-10-01T11:47:10.891Z,1.63
2018-10-01T11:49:40.092Z,2.57
2018-10-01T11:52:09.628Z,2.13
2018-10-01T11:54:38.867Z,2.37
2018-10-01T11:57:08.237Z,1.53
2018-10-01T11:59:37.383Z,2.33
2018-10-01T12:02:06.547Z,2.00
2018-10-01T12:04:36.862Z,2.27
2018-10-01T12:07:06.035Z,1.83
2018-10-01T12:09:35.336Z,1.90
2018-10-01T12:12:04.308Z,1.93
2018-10-01T12:14:34.849Z,2.03
2018-10-01T12:17:03.905Z,1.37
2018-10-01T12:19:32.955Z,1.70
2018-10-01T12:22:02.076Z,1.60
2018-10-01T12:24:38.175Z,2.20
2018-10-01T12:27:07.193Z,1.50
2018-10-01T12:29:36.211Z,2.40
2018-10-01T12:32:05.253Z,2.80
2018-10-01T12:34:37.661Z,2.37
2018-10-01T12:37:06.819Z,2.20
2018-10-01T12:39:36.169Z,1.77
2018-10-01T12:42:05.221Z,2.63
2018-10-01T12:44:38.985Z,1.63
2018-10-01T12:47:08.084Z,2.03
2018-10-01T12:49:37.101Z,2.13
2018-10-01T12:52:06.186Z,1.83
2018-10-01T12:54:38.664Z,1.97
2018-10-01T12:57:08.248Z,2.70
2018-10-01T12:59:37.468Z,2.57
2018-10-01T13:02:06.560Z,1.83
2018-10-01T13:04:37.796Z,2.40
2018-10-01T13:07:06.943Z,2.13
2018-10-01T13:09:36.119Z,3.23
2018-10-01T13:12:05.280Z,2.33
2018-10-01T13:14:41.497Z,2.20
2018-10-01T13:17:10.760Z,3.17
2018-10-01T13:19:39.840Z,2.50
2018-10-01T13:22:09.175Z,3.03
2018-10-01T13:24:46.123Z,1.60
2018-10-01T13:27:14.997Z,2.20
2018-10-01T13:29:44.139Z,2.50
2018-10-01T13:32:13.216Z,3.63
2018-10-01T13:34:47.033Z,3.00
2018-10-01T13:37:16.136Z,3.63
2018-10-01T13:39:45.193Z,3.17
2018-10-01T13:42:14.214Z,2.83
2018-10-01T13:44:43.305Z,2.53
2018-10-01T13:47:12.353Z,2.80
2018-10-01T13:49:41.285Z,3.40
2018-10-01T13:52:10.363Z,3.40
2018-10-01T13:54:41.557Z,1.80
2018-10-01T13:57:10.592Z,2.90
2018-10-01T13:59:39.579Z,2.27
2018-10-01T14:02:08.686Z,2.80
2018-10-01T14:04:40.949Z,3.37
2018-10-01T14:07:09.978Z,3.67
2018-10-01T14:09:39.142Z,3.33
2018-10-01T14:12:08.193Z,3.27
2018-10-01T14:14:37.205Z,2.23
2018-10-01T14:17:06.223Z,3.00
2018-10-01T14:19:35.225Z,3.60
2018-10-01T14:22:04.338Z,3.40
2018-10-01T14:24:34.378Z,3.03
2018-10-01T14:27:03.316Z,2.57
2018-10-01T14:29:33.089Z,2.27
2018-10-01T14:32:02.169Z,2.60
2018-10-01T14:34:31.217Z,2.00
2018-10-01T14:37:00.254Z,2.40
2018-10-01T14:39:29.240Z,4.00
2018-10-01T14:41:58.334Z,1.43
2018-10-01T14:44:27.274Z,2.33
2018-10-01T14:46:56.219Z,2.40
2018-10-01T14:49:25.187Z,1.43
2018-10-01T14:51:54.098Z,2.57
2018-10-01T14:54:23.125Z,1.80
2018-10-01T14:56:52.790Z,2.60
2018-10-01T14:59:21.719Z,2.13
2018-10-01T15:01:50.718Z,1.47
2018-10-01T15:04:19.642Z,2.17
2018-10-01T15:07:18.677Z,2.23
2018-10-01T15:09:47.808Z,2.50
2018-10-01T15:12:16.941Z,1.90
2018-10-01T15:14:45.844Z,2.50
2018-10-01T15:17:14.838Z,2.80
2018-10-01T15:19:43.852Z,2.20
2018-10-01T15:22:17.267Z,1.47
2018-10-01T15:24:46.305Z,1.53
2018-10-01T15:27:15.766Z,1.40
2018-10-01T15:29:44.993Z,2.10
2018-10-01T15:32:13.930Z,1.77
2018-10-01T15:34:43.248Z,1.70
2018-10-01T15:37:12.352Z,1.77
2018-10-01T15:39:41.409Z,1.30
2018-10-01T15:42:10.557Z,2.10
2018-10-01T15:44:39.735Z,1.30
2018-10-01T15:47:08.980Z,1.27
2018-10-01T15:49:38.556Z,0.90
2018-10-01T15:52:07.633Z,1.90
2018-10-01T15:54:36.736Z,1.10
2018-10-01T15:57:05.786Z,1.37
2018-10-01T15:59:34.779Z,1.70
2018-10-01T16:02:03.902Z,1.30
2018-10-01T16:04:33.215Z,1.77
2018-10-01T16:07:02.381Z,1.60
2018-10-01T16:09:31.567Z,1.40
2018-10-01T16:12:00.716Z,2.30
2018-10-01T16:14:29.808Z,1.73
2018-10-01T16:16:58.973Z,1.33
2018-10-01T16:19:28.945Z,1.43
2018-10-01T16:21:58.132Z,2.03
2018-10-01T16:24:27.264Z,1.60
2018-10-01T16:26:56.417Z,2.00
2018-10-01T16:29:25.556Z,1.90
2018-10-01T16:31:54.514Z,2.13
2018-10-01T16:34:23.650Z,2.40
2018-10-01T16:36:52.753Z,1.90
2018-10-01T16:39:21.808Z,1.13
2018-10-01T16:41:51.023Z,2.63
2018-10-01T16:44:20.105Z,2.07
2018-10-01T16:46:49.093Z,2.10
2018-10-01T16:49:18.238Z,2.57
2018-10-01T16:51:47.258Z,1.97
2018-10-01T16:54:16.418Z,2.47
2018-10-01T16:56:45.560Z,1.90
2018-10-01T16:59:14.668Z,2.17
2018-10-01T17:01:43.718Z,2.10
2018-10-01T17:04:12.765Z,2.63
2018-10-01T17:06:41.875Z,2.53
2018-10-01T17:09:10.945Z,2.03
2018-10-01T17:11:40.006Z,2.17
2018-10-01T17:14:09.145Z,2.23
2018-10-01T17:16:38.109Z,2.87
2018-10-01T17:19:07.225Z,2.50
2018-10-01T17:21:36.287Z,1.97
2018-10-01T17:24:05.393Z,1.70
2018-10-01T17:26:34.890Z,2.27
2018-10-01T17:29:04.057Z,1.83
2018-10-01T17:31:33.176Z,1.40
2018-10-01T17:34:02.531Z,2.10
2018-10-01T17:36:31.805Z,2.20
2018-10-01T17:39:00.930Z,1.60
2018-10-01T17:41:30.018Z,1.87
2018-10-01T17:43:59.162Z,1.67
2018-10-01T17:46:28.428Z,2.37
2018-10-01T17:48:57.732Z,1.57
2018-10-01T17:51:27.298Z,1.80
2018-10-01T17:53:57.049Z,1.73
2018-10-01T17:56:26.481Z,2.20
2018-10-01T17:58:56.024Z,1.60
2018-10-01T18:01:25.545Z,1.47
2018-10-01T18:03:55.115Z,2.37
2018-10-01T18:06:24.621Z,1.97
2018-10-01T18:08:54.185Z,2.30
2018-10-01T18:11:23.678Z,2.50
2018-10-01T18:13:53.165Z,2.00
2018-10-01T18:16:22.526Z,2.60
2018-10-01T18:18:52.030Z,2.60
2018-10-01T18:21:21.624Z,1.97
2018-10-01T18:23:51.165Z,2.40
2018-10-01T18:26:20.562Z,3.07
2018-10-01T18:28:49.938Z,2.40
2018-10-01T18:31:20.670Z,2.43
2018-10-01T18:33:50.246Z,1.90
2018-10-01T18:36:20.779Z,2.03
2018-10-01T18:38:50.243Z,2.13
2018-10-01T18:41:19.719Z,2.70
2018-10-01T18:43:49.196Z,2.33
2018-10-01T18:46:18.641Z,2.87
2018-10-01T18:48:48.151Z,3.60
2018-10-01T18:51:17.736Z,2.00
2018-10-01T18:53:47.128Z,2.80
2018-10-01T18:56:16.585Z,3.00
2018-10-01T18:58:46.172Z,2.10
2018-10-01T19:01:15.669Z,3.27
2018-10-01T19:03:45.108Z,2.90
2018-10-01T19:06:16.537Z,3.70
2018-10-01T19:08:46.016Z,2.43
2018-10-01T19:11:15.952Z,3.63
2018-10-01T19:13:45.483Z,2.60
2018-10-01T19:16:14.928Z,2.67
2018-10-01T19:18:45.445Z,3.43
2018-10-01T19:21:15.038Z,3.10
2018-10-01T19:23:44.587Z,3.10
2018-10-01T19:26:14.206Z,3.40
2018-10-01T19:28:43.721Z,2.67
2018-10-01T19:31:13.196Z,2.60
2018-10-01T19:33:42.645Z,2.77
2018-10-01T19:36:12.180Z,2.73
2018-10-01T19:38:41.625Z,2.53
2018-10-01T19:41:11.043Z,3.40
2018-10-01T19:43:40.453Z,3.57
2018-10-01T19:46:09.922Z,3.73
2018-10-01T19:48:39.345Z,2.90
2018-10-01T19:51:09.749Z,3.07
2018-10-01T19:53:39.400Z,3.33
2018-10-01T19:56:09.642Z,3.17
2018-10-01T19:58:39.176Z,3.10
2018-10-01T20:01:08.663Z,3.50
2018-10-01T20:03:38.362Z,3.13
2018-10-01T20:06:08.065Z,3.00
2018-10-01T20:08:37.552Z,2.53
2018-10-01T20:11:07.402Z,3.27
2018-10-01T20:13:36.985Z,4.37
2018-10-01T20:16:06.633Z,2.20
2018-10-01T20:18:36.080Z,3.27
2018-10-01T20:21:05.679Z,4.63
2018-10-01T20:23:35.267Z,4.67
2018-10-01T20:26:04.826Z,2.80
2018-10-01T20:28:34.507Z,2.13
2018-10-01T20:31:03.902Z,2.70
2018-10-01T20:33:33.432Z,3.33
2018-10-01T20:36:03.075Z,3.13
2018-10-01T20:38:32.530Z,3.63
2018-10-01T20:41:02.052Z,2.50
2018-10-01T20:43:31.572Z,3.00
2018-10-01T20:46:01.065Z,2.93
2018-10-01T20:48:30.561Z,2.60
2018-10-01T20:51:00.151Z,4.30
2018-10-01T20:53:30.513Z,2.97
2018-10-01T20:55:59.734Z,2.30
2018-10-01T20:58:29.028Z,2.90
2018-10-01T21:00:57.932Z,3.10
2018-10-01T21:03:27.020Z,3.37
2018-10-01T21:05:56.144Z,3.40
2018-10-01T21:08:25.199Z,2.87
2018-10-01T21:10:54.276Z,2.87
2018-10-01T21:13:23.321Z,3.63
2018-10-01T21:15:52.421Z,4.13
2018-10-01T21:18:21.524Z,2.27
2018-10-01T21:20:50.508Z,2.87
2018-10-01T21:23:19.548Z,2.53
2018-10-01T21:25:49.090Z,2.90
2018-10-01T21:28:19.217Z,3.20
2018-10-01T21:30:48.327Z,3.57
2018-10-01T21:33:17.410Z,2.90
2018-10-01T21:35:46.433Z,3.67
2018-10-01T21:38:15.392Z,3.03
2018-10-01T21:40:44.313Z,2.40
2018-10-01T21:43:13.437Z,2.53
2018-10-01T21:45:42.444Z,3.40
2018-10-01T21:48:11.495Z,3.10
2018-10-01T21:50:40.507Z,3.10
2018-10-01T21:53:09.632Z,3.70
2018-10-01T21:55:38.597Z,3.30
2018-10-01T21:58:07.734Z,3.60
2018-10-01T22:00:41.988Z,3.40
2018-10-01T22:03:11.072Z,3.20
2018-10-01T22:05:40.132Z,3.80
2018-10-01T22:08:09.097Z,3.73
2018-10-01T22:10:38.098Z,3.77
2018-10-01T22:13:07.086Z,3.30
2018-10-01T22:15:41.341Z,3.33
2018-10-01T22:18:10.386Z,2.40
2018-10-01T22:20:39.517Z,3.10
2018-10-01T22:23:08.753Z,4.93
2018-10-01T22:25:37.961Z,3.10
2018-10-01T22:28:07.183Z,3.47
2018-10-01T22:30:36.395Z,4.30
2018-10-01T22:33:05.484Z,3.20
2018-10-01T22:35:34.563Z,3.83
2018-10-01T22:38:03.689Z,3.60
2018-10-01T22:40:32.770Z,4.40
2018-10-01T22:43:01.925Z,4.03
2018-10-01T22:45:30.952Z,3.60
2018-10-01T22:47:59.765Z,3.67
2018-10-01T22:50:28.764Z,2.63
2018-10-01T22:52:57.739Z,4.20
2018-10-01T22:55:26.612Z,3.03
2018-10-01T22:57:55.641Z,3.77
2018-10-01T23:00:24.540Z,2.97
2018-10-01T23:02:53.421Z,3.20
2018-10-01T23:05:22.377Z,3.43
2018-10-01T23:07:51.439Z,3.67
2018-10-01T23:10:20.410Z,4.07
2018-10-01T23:12:49.576Z,3.73
2018-10-01T23:15:18.617Z,3.60
2018-10-01T23:17:47.600Z,3.80
2018-10-01T23:20:16.488Z,3.20
2018-10-01T23:22:45.487Z,3.47
2018-10-01T23:25:14.549Z,2.60
2018-10-01T23:27:43.778Z,2.70
2018-10-01T23:30:12.907Z,3.70
2018-10-01T23:32:42.305Z,3.40
2018-10-01T23:35:11.280Z,3.60
2018-10-01T23:37:40.304Z,2.50
2018-10-01T23:40:09.400Z,3.60
2018-10-01T23:42:38.368Z,3.30
2018-10-01T23:45:07.236Z,3.13
2018-10-01T23:47:36.341Z,3.43
2018-10-01T23:50:05.508Z,2.80
2018-10-01T23:52:34.436Z,2.70
2018-10-01T23:55:03.471Z,2.90
2018-10-01T23:57:33.329Z,3.30
